createdAt,value
2022-12-13T00:01:55.284Z,94040.31
2022-12-13T00:04:24.588Z,94037.69
2022-12-13T00:06:51.776Z,94042.75
2022-12-13T00:09:19.521Z,94043.41
2022-12-13T00:11:48.234Z,94044.88
2022-12-13T00:14:15.288Z,94040.81
2022-12-13T00:16:46.421Z,94045.84
2022-12-13T00:19:13.344Z,94050.41
2022-12-13T00:21:39.982Z,94060.06
2022-12-13T00:24:08.053Z,94056.97
2022-12-13T00:26:36.835Z,94030.16
2022-12-13T00:29:06.470Z,94029.47
2022-12-13T00:34:21.409Z,94017.38
2022-12-13T00:36:48.148Z,94001.94
2022-12-13T00:39:15.127Z,94003.22
2022-12-13T00:41:43.160Z,94000.63
2022-12-13T00:44:11.482Z,93996.59
2022-12-13T00:46:39.105Z,93993.88
2022-12-13T00:49:06.272Z,93997.75
2022-12-13T00:51:35.561Z,93991.63
2022-12-13T00:54:02.356Z,93983.75
2022-12-13T00:56:32.455Z,93992.41
2022-12-13T00:58:59.645Z,93986.31
2022-12-13T01:01:29.808Z,94002.59
2022-12-13T01:04:00.095Z,93993.25
2022-12-13T01:06:38.558Z,93997.44
2022-12-13T01:09:10.513Z,93997.44
2022-12-13T01:11:37.310Z,93996.00
2022-12-13T01:14:03.987Z,93994.34
2022-12-13T01:16:30.827Z,93985.97
2022-12-13T01:18:58.214Z,93986.16
2022-12-13T01:21:24.981Z,93985.34
2022-12-13T01:23:51.687Z,93978.72
2022-12-13T01:26:21.370Z,93983.41
2022-12-13T01:28:48.492Z,93975.50
2022-12-13T01:31:18.993Z,93963.91
2022-12-13T01:33:46.342Z,93971.59
2022-12-13T01:36:15.948Z,93975.16
2022-12-13T01:38:42.692Z,93972.06
2022-12-13T01:41:17.484Z,93965.75
2022-12-13T01:43:44.717Z,93963.38
2022-12-13T01:46:13.042Z,93973.84
2022-12-13T01:48:47.636Z,93978.78
2022-12-13T01:51:19.860Z,93980.47
2022-12-13T01:53:50.522Z,93977.25
2022-12-13T01:56:27.406Z,93974.84
2022-12-13T01:58:56.889Z,93976.16
2022-12-13T02:01:25.427Z,93968.06
2022-12-13T02:03:52.332Z,93975.03
2022-12-13T02:06:40.191Z,93978.72
2022-12-13T02:09:08.014Z,93971.47
2022-12-13T02:11:39.059Z,93972.59
2022-12-13T02:14:05.834Z,93972.44
2022-12-13T02:16:57.000Z,93965.78
2022-12-13T02:20:01.375Z,93970.16
2022-12-13T02:22:58.840Z,93958.53
2022-12-13T02:25:42.517Z,93954.53
2022-12-13T02:28:53.040Z,93957.75
2022-12-13T02:31:32.236Z,93951.00
2022-12-13T02:34:09.839Z,93945.78
2022-12-13T02:36:49.720Z,93936.06
2022-12-13T02:39:31.130Z,93935.03
2022-12-13T02:42:07.787Z,93927.13
2022-12-13T02:44:59.512Z,93936.78
2022-12-13T02:47:30.892Z,93929.50
2022-12-13T02:50:03.741Z,93924.81
2022-12-13T02:52:33.036Z,93912.81
2022-12-13T02:55:00.173Z,93911.66
2022-12-13T02:57:39.585Z,93908.59
2022-12-13T03:00:08.679Z,93910.84
2022-12-13T03:02:59.766Z,93912.75
2022-12-13T03:05:47.792Z,93908.31
2022-12-13T03:08:23.536Z,93907.31
2022-12-13T03:11:03.610Z,93902.50
2022-12-13T03:13:55.069Z,93906.03
2022-12-13T03:16:27.764Z,93907.00
2022-12-13T03:18:59.613Z,93902.91
2022-12-13T03:21:27.087Z,93903.66
2022-12-13T03:23:54.541Z,93905.44
2022-12-13T03:26:26.583Z,93893.94
2022-12-13T03:28:53.557Z,93886.63
2022-12-13T03:31:20.426Z,93890.81
2022-12-13T03:33:47.419Z,93889.59
2022-12-13T03:36:16.412Z,93884.63
2022-12-13T03:38:43.262Z,93882.00
2022-12-13T03:41:15.324Z,93885.09
2022-12-13T03:43:43.065Z,93882.41
2022-12-13T03:46:10.298Z,93882.97
2022-12-13T03:48:37.367Z,93877.88
2022-12-13T03:51:04.434Z,93877.53
2022-12-13T03:53:33.405Z,93879.44
2022-12-13T03:56:05.853Z,93880.72
2022-12-13T03:58:36.190Z,93876.69
2022-12-13T04:01:09.255Z,93886.22
2022-12-13T04:03:37.550Z,93886.63
2022-12-13T04:06:05.327Z,93888.28
2022-12-13T04:08:32.983Z,93888.56
2022-12-13T04:10:59.739Z,93882.97
2022-12-13T04:13:46.487Z,93877.31
2022-12-13T04:16:33.477Z,93873.50
2022-12-13T04:19:00.595Z,93866.59
2022-12-13T04:21:27.490Z,93860.81
2022-12-13T04:23:54.804Z,93865.09
2022-12-13T04:26:21.484Z,93865.44
2022-12-13T04:28:54.195Z,93866.38
2022-12-13T04:31:23.097Z,93868.72
2022-12-13T04:33:50.112Z,93858.41
2022-12-13T04:36:16.805Z,93858.41
2022-12-13T04:39:00.731Z,93856.13
2022-12-13T04:41:34.518Z,93863.22
2022-12-13T04:44:02.431Z,93865.09
2022-12-13T04:46:29.192Z,93860.69
2022-12-13T04:48:56.151Z,93863.13
2022-12-13T04:51:24.267Z,93864.75
2022-12-13T04:53:50.974Z,93865.41
2022-12-13T04:56:17.980Z,93862.75
2022-12-13T04:58:44.802Z,93858.88
2022-12-13T05:01:12.422Z,93850.41
2022-12-13T05:03:39.571Z,93863.41
2022-12-13T05:06:27.284Z,93857.56
2022-12-13T05:09:00.613Z,93855.47
2022-12-13T05:11:35.838Z,93844.69
2022-12-13T05:14:02.972Z,93843.59
2022-12-13T05:16:29.894Z,93836.75
2022-12-13T05:18:56.623Z,93836.63
2022-12-13T05:21:23.334Z,93839.59
2022-12-13T05:23:50.034Z,93840.72
2022-12-13T05:26:16.739Z,93845.38
2022-12-13T05:28:43.694Z,93843.19
2022-12-13T05:31:23.573Z,93839.13
2022-12-13T05:33:54.317Z,93841.97
2022-12-13T05:36:28.549Z,93838.06
2022-12-13T05:38:55.432Z,93839.56
2022-12-13T05:41:24.670Z,93843.13
2022-12-13T05:43:51.752Z,93835.53
2022-12-13T05:46:18.439Z,93843.19
2022-12-13T05:48:45.372Z,93850.16
2022-12-13T05:51:12.385Z,93854.16
2022-12-13T05:53:42.278Z,93852.50
2022-12-13T05:56:11.056Z,93854.38
2022-12-13T05:58:39.545Z,93853.31
2022-12-13T06:01:12.629Z,93841.03
2022-12-13T06:03:41.263Z,93851.00
2022-12-13T06:06:10.856Z,93854.16
2022-12-13T06:08:37.677Z,93843.53
2022-12-13T06:11:11.286Z,93845.50
2022-12-13T06:13:42.396Z,93844.19
2022-12-13T06:16:22.754Z,93845.47
2022-12-13T06:19:03.309Z,93845.59
2022-12-13T06:21:41.496Z,93845.69
2022-12-13T06:24:14.690Z,93842.75
2022-12-13T06:26:41.517Z,93840.78
2022-12-13T06:29:08.355Z,93839.50
2022-12-13T06:31:35.103Z,93836.63
2022-12-13T06:34:14.381Z,93839.03
2022-12-13T06:36:42.590Z,93839.16
2022-12-13T06:39:09.528Z,93846.28
2022-12-13T06:41:36.363Z,93842.81
2022-12-13T06:44:03.272Z,93846.72
2022-12-13T06:46:30.000Z,93851.97
2022-12-13T06:48:56.700Z,93851.97
2022-12-13T06:51:32.830Z,93850.38
2022-12-13T06:54:01.348Z,93848.28
2022-12-13T06:56:29.339Z,93845.19
2022-12-13T06:59:02.001Z,93852.06
2022-12-13T07:01:37.646Z,93847.63
2022-12-13T07:04:29.310Z,93861.03
2022-12-13T07:06:55.130Z,93862.69
2022-12-13T07:09:28.972Z,93882.59
2022-12-13T07:11:55.705Z,93878.75
2022-12-13T07:14:22.407Z,93877.47
2022-12-13T07:16:49.391Z,93872.78
2022-12-13T07:19:22.774Z,93874.00
2022-12-13T07:21:51.008Z,93877.44
2022-12-13T07:24:17.746Z,93876.97
2022-12-13T07:26:44.556Z,93873.09
2022-12-13T07:29:11.289Z,93875.91
2022-12-13T07:31:38.200Z,93882.91
2022-12-13T07:34:05.292Z,93887.44
2022-12-13T07:36:32.124Z,93897.94
2022-12-13T07:38:59.021Z,93897.69
2022-12-13T07:41:29.839Z,93893.91
2022-12-13T07:43:56.715Z,93891.72
2022-12-13T07:46:32.505Z,93900.94
2022-12-13T07:49:04.960Z,93913.72
2022-12-13T07:51:34.603Z,93908.16
2022-12-13T07:54:01.262Z,93908.28
2022-12-13T07:56:33.731Z,93916.22
2022-12-13T07:59:00.344Z,93920.00
2022-12-13T08:01:27.130Z,93917.38
2022-12-13T08:03:53.880Z,93918.97
2022-12-13T08:06:20.495Z,93916.56
2022-12-13T08:08:47.121Z,93923.69
2022-12-13T08:11:14.632Z,93930.53
2022-12-13T08:13:41.361Z,93927.16
2022-12-13T08:16:27.322Z,93932.19
2022-12-13T08:19:02.849Z,93920.06
2022-12-13T08:21:56.668Z,93924.25
2022-12-13T08:24:29.164Z,93920.69
2022-12-13T08:26:59.096Z,93932.84
2022-12-13T08:29:34.193Z,93934.19
2022-12-13T08:32:13.117Z,93930.88
2022-12-13T08:34:40.489Z,93938.44
2022-12-13T08:37:07.721Z,93949.75
2022-12-13T08:39:37.594Z,93954.28
2022-12-13T08:42:15.903Z,93947.88
2022-12-13T08:44:54.516Z,93941.97
2022-12-13T08:47:26.319Z,93939.78
2022-12-13T08:50:02.802Z,93937.41
2022-12-13T08:52:40.218Z,93931.19
2022-12-13T08:55:14.092Z,93942.31
2022-12-13T08:57:43.287Z,93948.19
2022-12-13T09:00:16.993Z,93956.53
2022-12-13T09:02:43.695Z,93961.44
2022-12-13T09:05:11.219Z,93965.44
2022-12-13T09:07:37.960Z,93970.56
2022-12-13T09:10:25.832Z,93974.84
2022-12-13T09:13:01.743Z,93988.19
2022-12-13T09:15:34.390Z,93979.75
2022-12-13T09:18:04.354Z,93975.25
2022-12-13T09:20:40.746Z,93980.66
2022-12-13T09:23:14.033Z,93986.03
2022-12-13T09:25:55.331Z,93987.91
2022-12-13T09:28:22.300Z,93987.63
2022-12-13T09:30:49.933Z,93992.56
2022-12-13T09:33:28.089Z,93986.97
2022-12-13T09:36:01.209Z,93995.69
2022-12-13T09:38:28.431Z,93993.22
2022-12-13T09:40:59.332Z,93988.53
2022-12-13T09:43:43.021Z,93985.19
2022-12-13T09:46:34.702Z,93983.34
2022-12-13T09:49:24.619Z,93982.75
2022-12-13T09:52:11.793Z,93983.44
2022-12-13T09:54:49.060Z,93979.56
2022-12-13T09:57:31.509Z,93981.59
2022-12-13T10:00:13.315Z,93973.03
2022-12-13T10:02:46.752Z,93976.69
2022-12-13T10:05:23.270Z,93971.53
2022-12-13T10:07:55.092Z,93966.75
2022-12-13T10:10:21.892Z,93963.94
2022-12-13T10:13:20.724Z,93960.50
2022-12-13T10:15:58.594Z,93960.31
2022-12-13T10:18:34.077Z,93965.50
2022-12-13T10:21:24.691Z,93970.91
2022-12-13T10:26:39.470Z,93966.34
2022-12-13T10:29:07.513Z,93962.13
2022-12-13T10:31:48.081Z,93960.91
2022-12-13T10:34:21.007Z,93947.09
2022-12-13T10:36:48.502Z,93955.91
2022-12-13T10:39:39.547Z,93952.06
2022-12-13T10:42:14.018Z,93955.66
2022-12-13T10:45:14.140Z,93955.09
2022-12-13T10:47:43.698Z,93957.53
2022-12-13T10:50:25.436Z,93960.50
2022-12-13T10:52:53.676Z,93958.63
2022-12-13T10:55:32.191Z,93959.75
2022-12-13T10:58:05.387Z,93943.22
2022-12-13T11:00:37.323Z,93942.41
2022-12-13T11:03:05.331Z,93940.41
2022-12-13T11:05:35.339Z,93936.84
2022-12-13T11:08:24.472Z,93933.59
2022-12-13T11:10:59.728Z,93935.19
2022-12-13T11:13:40.495Z,93935.50
2022-12-13T11:16:33.356Z,93929.41
2022-12-13T11:19:06.177Z,93931.09
2022-12-13T11:21:36.742Z,93934.75
2022-12-13T11:24:08.738Z,93938.47
2022-12-13T11:26:39.593Z,93933.66
2022-12-13T11:29:29.152Z,93933.88
2022-12-13T11:31:55.823Z,93943.38
2022-12-13T11:34:33.061Z,93945.22
2022-12-13T11:37:33.591Z,93933.66
2022-12-13T11:40:26.164Z,93923.03
2022-12-13T11:43:02.079Z,93935.63
2022-12-13T11:45:41.795Z,93933.47
2022-12-13T11:48:20.906Z,93944.28
2022-12-13T11:50:50.980Z,93940.47
2022-12-13T11:53:29.772Z,93936.22
2022-12-13T11:56:08.249Z,93941.19
2022-12-13T11:59:03.025Z,93940.63
2022-12-13T12:01:42.587Z,93942.72
2022-12-13T12:04:40.438Z,93953.84
2022-12-13T12:07:32.357Z,93949.78
2022-12-13T12:10:27.038Z,93941.28
2022-12-13T12:13:25.617Z,93930.41
2022-12-13T12:16:11.237Z,93925.88
2022-12-13T12:18:37.963Z,93915.88
2022-12-13T12:21:23.097Z,93912.44
2022-12-13T12:23:58.669Z,93911.88
2022-12-13T12:26:51.469Z,93909.03
2022-12-13T12:29:36.854Z,93915.84
2022-12-13T12:32:06.458Z,93915.31
2022-12-13T12:34:58.060Z,93920.44
2022-12-13T12:37:24.740Z,93910.81
2022-12-13T12:40:22.021Z,93911.94
2022-12-13T12:43:30.305Z,93920.84
2022-12-13T12:46:21.092Z,93905.41
2022-12-13T12:49:06.986Z,93901.41
2022-12-13T12:51:51.116Z,93903.22
2022-12-13T12:54:33.102Z,93905.56
2022-12-13T12:57:30.279Z,93894.53
2022-12-13T13:00:21.508Z,93896.16
2022-12-13T13:03:15.746Z,93887.66
2022-12-13T13:06:02.408Z,93896.44
2022-12-13T13:08:36.794Z,93899.25
2022-12-13T13:11:24.301Z,93897.41
2022-12-13T13:14:01.684Z,93882.34
2022-12-13T13:16:31.611Z,93883.50
2022-12-13T13:19:03.503Z,93888.81
2022-12-13T13:21:40.906Z,93890.63
2022-12-13T13:24:07.618Z,93893.44
2022-12-13T13:26:45.062Z,93892.88
2022-12-13T13:29:27.610Z,93893.00
2022-12-13T13:32:10.264Z,93886.06
2022-12-13T13:34:46.237Z,93898.91
2022-12-13T13:37:46.840Z,93896.47
2022-12-13T13:40:13.602Z,93896.69
2022-12-13T13:43:06.736Z,93903.69
2022-12-13T13:45:56.532Z,93904.72
2022-12-13T13:48:58.767Z,93901.97
2022-12-13T13:52:23.889Z,93905.34
2022-12-13T13:55:15.406Z,93906.72
2022-12-13T13:58:21.906Z,93902.94
2022-12-13T14:01:16.982Z,93903.53
2022-12-13T14:04:21.137Z,93898.75
2022-12-13T14:07:13.584Z,93907.31
2022-12-13T14:10:07.963Z,93910.72
2022-12-13T14:13:12.231Z,93912.75
2022-12-13T14:15:49.882Z,93911.19
2022-12-13T14:18:53.794Z,93910.78
2022-12-13T14:21:51.544Z,93915.56
2022-12-13T14:24:39.988Z,93908.69
2022-12-13T14:27:48.090Z,93919.50
2022-12-13T14:30:27.164Z,93910.19
2022-12-13T14:32:59.676Z,93909.56
2022-12-13T14:35:32.375Z,93909.25
2022-12-13T14:38:05.014Z,93912.91
2022-12-13T14:40:35.062Z,93912.44
2022-12-13T14:43:03.534Z,93915.38
2022-12-13T14:45:35.541Z,93912.81
2022-12-13T14:48:15.805Z,93915.19
2022-12-13T14:50:55.314Z,93909.81
2022-12-13T14:53:34.091Z,93915.91
2022-12-13T14:56:06.858Z,93908.41
2022-12-13T14:58:33.920Z,93900.03
2022-12-13T15:01:02.047Z,93904.44
2022-12-13T15:03:29.166Z,93920.44
2022-12-13T15:05:59.835Z,93906.41
2022-12-13T15:08:27.940Z,93906.22
2022-12-13T15:10:58.412Z,93905.78
2022-12-13T15:13:46.732Z,93899.78
2022-12-13T15:16:29.109Z,93895.84
2022-12-13T15:19:31.422Z,93892.88
2022-12-13T15:22:03.239Z,93903.00
2022-12-13T15:24:34.669Z,93905.53
2022-12-13T15:27:02.874Z,93906.81
2022-12-13T15:29:33.743Z,93901.34
2022-12-13T15:32:01.731Z,93913.81
2022-12-13T15:34:30.311Z,93909.25
2022-12-13T15:37:05.678Z,93912.97
2022-12-13T15:39:47.870Z,93897.13
2022-12-13T15:42:28.219Z,93896.22
2022-12-13T15:45:00.706Z,93906.00
2022-12-13T15:47:29.333Z,93912.03
2022-12-13T15:50:06.378Z,93898.25
2022-12-13T15:52:38.574Z,93906.06
2022-12-13T15:55:05.207Z,93901.25
2022-12-13T15:57:48.123Z,93904.75
2022-12-13T16:00:17.544Z,93912.56
2022-12-13T16:03:17.160Z,93908.00
2022-12-13T16:05:50.124Z,93905.13
2022-12-13T16:08:39.428Z,93907.31
2022-12-13T16:11:08.863Z,93908.75
2022-12-13T16:13:38.065Z,93902.16
2022-12-13T16:16:29.493Z,93902.00
2022-12-13T16:19:01.304Z,93898.53
2022-12-13T16:21:30.160Z,93895.38
2022-12-13T16:23:56.979Z,93887.31
2022-12-13T16:26:26.357Z,93894.63
2022-12-13T16:28:54.737Z,93885.53
2022-12-13T16:31:25.054Z,93873.50
2022-12-13T16:33:51.718Z,93885.81
2022-12-13T16:36:18.503Z,93884.22
2022-12-13T16:38:45.406Z,93880.06
2022-12-13T16:41:12.435Z,93887.03
2022-12-13T16:44:01.458Z,93873.44
2022-12-13T16:47:11.451Z,93881.81
2022-12-13T16:49:33.991Z,93883.56
2022-12-13T16:52:00.804Z,93872.75
2022-12-13T16:54:27.477Z,93886.34
2022-12-13T16:56:54.717Z,93883.63
2022-12-13T16:59:24.658Z,93877.16
2022-12-13T17:01:52.008Z,93879.94
2022-12-13T17:04:24.436Z,93885.13
2022-12-13T17:06:54.590Z,93875.41
2022-12-13T17:09:23.626Z,93883.47
2022-12-13T17:11:50.395Z,93881.13
2022-12-13T17:14:17.022Z,93880.44
2022-12-13T17:16:44.836Z,93872.38
2022-12-13T17:19:12.250Z,93871.03
2022-12-13T17:21:41.250Z,93869.81
2022-12-13T17:24:08.070Z,93868.34
2022-12-13T17:26:37.341Z,93865.75
2022-12-13T17:29:04.114Z,93866.81
2022-12-13T17:31:35.213Z,93863.31
2022-12-13T17:34:02.793Z,93859.00
2022-12-13T17:36:29.763Z,93861.53
2022-12-13T17:38:56.393Z,93853.75
2022-12-13T17:41:23.612Z,93861.00
2022-12-13T17:43:50.419Z,93858.00
2022-12-13T17:46:19.167Z,93858.19
2022-12-13T17:48:45.932Z,93852.13
2022-12-13T17:51:13.828Z,93856.38
2022-12-13T17:53:43.325Z,93858.19
2022-12-13T17:56:12.809Z,93851.53
2022-12-13T17:58:39.881Z,93852.13
2022-12-13T18:01:11.071Z,93851.13
2022-12-13T18:03:38.024Z,93847.59
2022-12-13T18:06:05.904Z,93842.06
2022-12-13T18:08:36.958Z,93848.00
2022-12-13T18:13:54.968Z,93852.16
2022-12-13T18:16:26.728Z,93855.56
2022-12-13T18:18:57.328Z,93851.88
2022-12-13T18:21:25.838Z,93848.78
2022-12-13T18:23:55.225Z,93854.34
2022-12-13T18:26:24.572Z,93850.38
2022-12-13T18:28:52.196Z,93854.91
2022-12-13T18:31:24.489Z,93850.66
2022-12-13T18:33:53.471Z,93861.13
2022-12-13T18:36:22.591Z,93855.47
2022-12-13T18:38:49.853Z,93852.66
2022-12-13T18:41:19.516Z,93849.28
2022-12-13T18:43:46.367Z,93858.00
2022-12-13T18:46:14.804Z,93846.66
2022-12-13T18:48:41.784Z,93842.06
2022-12-13T18:51:10.117Z,93846.59
2022-12-13T18:53:38.743Z,93848.59
2022-12-13T18:56:12.873Z,93849.66
2022-12-13T18:58:44.526Z,93855.53
2022-12-13T19:01:13.360Z,93850.31
2022-12-13T19:03:42.323Z,93855.22
2022-12-13T19:06:19.250Z,93856.88
2022-12-13T19:08:51.099Z,93852.91
2022-12-13T19:11:18.358Z,93855.97
2022-12-13T19:13:45.340Z,93856.69
2022-12-13T19:16:13.595Z,93859.66
2022-12-13T19:18:40.392Z,93858.56
2022-12-13T19:21:09.168Z,93851.66
2022-12-13T19:23:36.264Z,93856.66
2022-12-13T19:26:07.177Z,93848.75
2022-12-13T19:28:34.849Z,93846.06
2022-12-13T19:31:06.467Z,93850.59
2022-12-13T19:33:33.460Z,93848.34
2022-12-13T19:36:04.903Z,93844.50
2022-12-13T19:38:32.495Z,93849.19
2022-12-13T19:41:00.323Z,93844.81
2022-12-13T19:43:27.356Z,93848.88
2022-12-13T19:45:54.276Z,93842.63
2022-12-13T19:48:20.932Z,93832.59
2022-12-13T19:50:47.572Z,93839.84
2022-12-13T19:53:14.291Z,93837.59
2022-12-13T19:55:44.446Z,93839.78
2022-12-13T19:58:11.500Z,93829.94
2022-12-13T20:00:38.208Z,93836.91
2022-12-13T20:03:05.111Z,93829.59
2022-12-13T20:05:31.886Z,93836.34
2022-12-13T20:07:58.569Z,93843.78
2022-12-13T20:10:26.020Z,93840.94
2022-12-13T20:12:52.738Z,93833.56
2022-12-13T20:15:19.490Z,93826.47
2022-12-13T20:17:46.161Z,93826.66
2022-12-13T20:20:13.121Z,93829.25
2022-12-13T20:22:39.832Z,93826.50
2022-12-13T20:25:09.802Z,93825.28
2022-12-13T20:27:36.912Z,93824.47
2022-12-13T20:30:04.746Z,93817.50
2022-12-13T20:32:31.467Z,93824.50
2022-12-13T20:34:58.088Z,93812.34
2022-12-13T20:37:26.488Z,93813.00
2022-12-13T20:39:53.564Z,93820.84
2022-12-13T20:42:20.225Z,93829.75
2022-12-13T20:44:46.955Z,93832.84
2022-12-13T20:47:13.609Z,93819.03
2022-12-13T20:49:40.303Z,93827.44
2022-12-13T20:52:06.919Z,93829.47
2022-12-13T20:54:33.587Z,93825.22
2022-12-13T20:57:00.304Z,93818.28
2022-12-13T20:59:26.942Z,93815.38
2022-12-13T21:01:53.702Z,93815.41
2022-12-13T21:04:20.597Z,93815.56
2022-12-13T21:06:47.386Z,93807.09
2022-12-13T21:09:14.192Z,93806.50
2022-12-13T21:11:48.988Z,93803.41
2022-12-13T21:14:23.358Z,93808.53
2022-12-13T21:16:56.126Z,93811.09
2022-12-13T21:19:38.941Z,93813.38
2022-12-13T21:22:07.100Z,93817.59
2022-12-13T21:24:33.862Z,93818.44
2022-12-13T21:27:00.662Z,93807.16
2022-12-13T21:29:27.318Z,93811.78
2022-12-13T21:31:54.151Z,93818.41
2022-12-13T21:34:21.947Z,93815.16
2022-12-13T21:36:51.476Z,93810.81
2022-12-13T21:39:21.404Z,93816.88
2022-12-13T21:41:48.239Z,93812.19
2022-12-13T21:44:17.440Z,93808.19
2022-12-13T21:49:31.325Z,93792.56
2022-12-13T21:51:58.181Z,93803.91
2022-12-13T21:54:25.351Z,93791.34
2022-12-13T21:56:51.989Z,93796.25
2022-12-13T21:59:26.360Z,93802.38
2022-12-13T22:01:55.069Z,93796.41
2022-12-13T22:04:22.295Z,93790.72
2022-12-13T22:06:50.938Z,93799.59
2022-12-13T22:09:17.683Z,93795.16
2022-12-13T22:11:44.417Z,93793.50
2022-12-13T22:14:11.562Z,93792.78
2022-12-13T22:16:38.300Z,93790.72
2022-12-13T22:19:05.093Z,93793.09
2022-12-13T22:21:31.935Z,93794.69
2022-12-13T22:23:59.084Z,93795.31
2022-12-13T22:26:25.879Z,93790.44
2022-12-13T22:28:52.584Z,93792.00
2022-12-13T22:31:19.751Z,93788.50
2022-12-13T22:33:46.582Z,93797.25
2022-12-13T22:36:13.405Z,93792.72
2022-12-13T22:38:40.365Z,93789.47
2022-12-13T22:41:07.419Z,93775.94
2022-12-13T22:43:37.215Z,93773.97
2022-12-13T22:46:06.582Z,93763.91
2022-12-13T22:48:33.848Z,93764.47
2022-12-13T22:51:15.738Z,93773.25
2022-12-13T22:53:46.723Z,93774.66
2022-12-13T22:56:17.698Z,93776.13
2022-12-13T22:58:45.513Z,93763.72
2022-12-13T23:01:24.573Z,93775.19
2022-12-13T23:03:52.360Z,93768.53
2022-12-13T23:06:22.640Z,93760.84
2022-12-13T23:08:52.320Z,93757.28
2022-12-13T23:11:20.219Z,93753.25
2022-12-13T23:13:54.101Z,93762.09
2022-12-13T23:16:24.260Z,93759.72
2022-12-13T23:19:05.206Z,93764.84
2022-12-13T23:21:38.639Z,93755.41
2022-12-13T23:24:06.036Z,93747.28
2022-12-13T23:26:34.068Z,93746.97
2022-12-13T23:29:04.020Z,93754.78
2022-12-13T23:31:34.430Z,93750.59
2022-12-13T23:34:01.290Z,93745.13
2022-12-13T23:36:28.780Z,93748.88
2022-12-13T23:39:01.631Z,93757.47
2022-12-13T23:41:33.670Z,93748.75
2022-12-13T23:44:01.687Z,93742.84
2022-12-13T23:46:36.513Z,93738.50
2022-12-13T23:49:06.029Z,93732.38
2022-12-13T23:51:34.262Z,93734.38
2022-12-13T23:54:01.231Z,93722.31
2022-12-13T23:56:28.012Z,93722.25
2022-12-13T23:58:54.764Z,93724.06
